sensor_id;sensor_type;location;lat;lon;timestamp;temperature;humidity
15707;DHT22;7953;54.302;10.128;2022-12-29T00:00:18;8.00;99.90
15707;DHT22;7953;54.302;10.128;2022-12-29T00:02:45;8.00;99.90
15707;DHT22;7953;54.302;10.128;2022-12-29T00:05:12;7.90;99.90
15707;DHT22;7953;54.302;10.128;2022-12-29T00:07:39;7.90;99.90
15707;DHT22;7953;54.302;10.128;2022-12-29T00:10:07;7.90;99.90
15707;DHT22;7953;54.302;10.128;2022-12-29T00:12:34;8.00;99.90
15707;DHT22;7953;54.302;10.128;2022-12-29T00:15:19;8.00;99.90
15707;DHT22;7953;54.302;10.128;2022-12-29T00:18:04;8.10;99.90
15707;DHT22;7953;54.302;10.128;2022-12-29T00:20:33;8.10;99.90
15707;DHT22;7953;54.302;10.128;2022-12-29T00:23:18;8.10;99.90
15707;DHT22;7953;54.302;10.128;2022-12-29T00:26:05;8.10;99.90
15707;DHT22;7953;54.302;10.128;2022-12-29T00:28:53;8.20;99.90
15707;DHT22;7953;54.302;10.128;2022-12-29T00:31:37;8.10;99.90
15707;DHT22;7953;54.302;10.128;2022-12-29T00:34:21;8.20;99.90
15707;DHT22;7953;54.302;10.128;2022-12-29T00:37:06;8.20;99.90
15707;DHT22;7953;54.302;10.128;2022-12-29T00:39:32;8.30;99.90
15707;DHT22;7953;54.302;10.128;2022-12-29T00:42:18;8.20;99.90
15707;DHT22;7953;54.302;10.128;2022-12-29T00:45:03;8.30;99.90
15707;DHT22;7953;54.302;10.128;2022-12-29T00:47:30;8.30;99.90
15707;DHT22;7953;54.302;10.128;2022-12-29T00:49:57;8.40;99.90
15707;DHT22;7953;54.302;10.128;2022-12-29T00:52:23;8.40;99.90
15707;DHT22;7953;54.302;10.128;2022-12-29T00:54:49;8.40;99.90
15707;DHT22;7953;54.302;10.128;2022-12-29T00:57:18;8.50;99.90
15707;DHT22;7953;54.302;10.128;2022-12-29T00:59:45;8.50;99.90
15707;DHT22;7953;54.302;10.128;2022-12-29T01:02:12;8.40;99.90
15707;DHT22;7953;54.302;10.128;2022-12-29T01:04:38;8.50;99.90
15707;DHT22;7953;54.302;10.128;2022-12-29T01:07:06;8.50;99.90
15707;DHT22;7953;54.302;10.128;2022-12-29T01:09:32;8.50;99.90
15707;DHT22;7953;54.302;10.128;2022-12-29T01:12:18;8.50;99.90
15707;DHT22;7953;54.302;10.128;2022-12-29T01:15:06;8.60;99.90
15707;DHT22;7953;54.302;10.128;2022-12-29T01:17:34;8.60;99.90
15707;DHT22;7953;54.302;10.128;2022-12-29T01:20:01;8.70;99.90
15707;DHT22;7953;54.302;10.128;2022-12-29T01:22:28;8.60;99.90
15707;DHT22;7953;54.302;10.128;2022-12-29T01:24:55;8.60;99.90
15707;DHT22;7953;54.302;10.128;2022-12-29T01:27:23;8.70;99.90
15707;DHT22;7953;54.302;10.128;2022-12-29T01:29:50;8.70;99.90
15707;DHT22;7953;54.302;10.128;2022-12-29T01:32:17;8.60;99.90
15707;DHT22;7953;54.302;10.128;2022-12-29T01:34:44;8.70;99.90
15707;DHT22;7953;54.302;10.128;2022-12-29T01:37:11;8.70;99.90
15707;DHT22;7953;54.302;10.128;2022-12-29T01:39:38;8.80;99.90
15707;DHT22;7953;54.302;10.128;2022-12-29T01:42:05;8.70;99.90
15707;DHT22;7953;54.302;10.128;2022-12-29T01:44:50;8.80;99.90
15707;DHT22;7953;54.302;10.128;2022-12-29T01:47:24;8.80;99.90
15707;DHT22;7953;54.302;10.128;2022-12-29T01:49:54;8.90;99.90
15707;DHT22;7953;54.302;10.128;2022-12-29T01:52:23;8.90;99.90
15707;DHT22;7953;54.302;10.128;2022-12-29T01:54:53;8.90;99.90
15707;DHT22;7953;54.302;10.128;2022-12-29T01:57:22;8.90;99.90
15707;DHT22;7953;54.302;10.128;2022-12-29T01:59:55;8.90;99.90
15707;DHT22;7953;54.302;10.128;2022-12-29T02:02:23;8.90;99.90
15707;DHT22;7953;54.302;10.128;2022-12-29T02:04:52;8.90;99.90
15707;DHT22;7953;54.302;10.128;2022-12-29T02:07:21;8.90;99.90
15707;DHT22;7953;54.302;10.128;2022-12-29T02:09:50;8.90;99.90
15707;DHT22;7953;54.302;10.128;2022-12-29T02:12:20;8.90;99.90
15707;DHT22;7953;54.302;10.128;2022-12-29T02:14:49;8.90;99.90
15707;DHT22;7953;54.302;10.128;2022-12-29T02:17:26;9.00;99.90
15707;DHT22;7953;54.302;10.128;2022-12-29T02:23:25;9.00;99.90
15707;DHT22;7953;54.302;10.128;2022-12-29T02:26:10;9.10;99.90
15707;DHT22;7953;54.302;10.128;2022-12-29T02:29:06;9.10;99.90
15707;DHT22;7953;54.302;10.128;2022-12-29T02:31:43;9.10;99.90
15707;DHT22;7953;54.302;10.128;2022-12-29T02:34:20;9.10;99.90
15707;DHT22;7953;54.302;10.128;2022-12-29T02:36:58;9.10;99.90
15707;DHT22;7953;54.302;10.128;2022-12-29T02:39:34;9.10;99.90
15707;DHT22;7953;54.302;10.128;2022-12-29T02:42:07;9.10;99.90
15707;DHT22;7953;54.302;10.128;2022-12-29T02:44:44;9.10;99.90
15707;DHT22;7953;54.302;10.128;2022-12-29T02:47:22;9.10;99.90
15707;DHT22;7953;54.302;10.128;2022-12-29T02:49:57;9.10;99.90
15707;DHT22;7953;54.302;10.128;2022-12-29T02:52:29;9.10;99.90
15707;DHT22;7953;54.302;10.128;2022-12-29T02:54:58;9.10;99.90
15707;DHT22;7953;54.302;10.128;2022-12-29T02:57:32;9.10;99.90
15707;DHT22;7953;54.302;10.128;2022-12-29T03:00:04;9.10;99.90
15707;DHT22;7953;54.302;10.128;2022-12-29T03:02:58;9.10;99.90
15707;DHT22;7953;54.302;10.128;2022-12-29T03:05:43;9.10;99.90
15707;DHT22;7953;54.302;10.128;2022-12-29T03:08:19;9.10;99.90
15707;DHT22;7953;54.302;10.128;2022-12-29T03:10:57;9.10;99.90
15707;DHT22;7953;54.302;10.128;2022-12-29T03:13:29;9.10;99.90
15707;DHT22;7953;54.302;10.128;2022-12-29T03:16:21;9.20;99.90
15707;DHT22;7953;54.302;10.128;2022-12-29T03:18:57;9.20;99.90
15707;DHT22;7953;54.302;10.128;2022-12-29T03:21:32;9.20;99.90
15707;DHT22;7953;54.302;10.128;2022-12-29T03:24:20;9.20;99.90
15707;DHT22;7953;54.302;10.128;2022-12-29T03:26:49;9.20;99.90
15707;DHT22;7953;54.302;10.128;2022-12-29T03:29:18;9.20;99.90
15707;DHT22;7953;54.302;10.128;2022-12-29T03:31:48;9.20;99.90
15707;DHT22;7953;54.302;10.128;2022-12-29T03:34:19;9.30;99.90
15707;DHT22;7953;54.302;10.128;2022-12-29T03:36:50;9.30;99.90
15707;DHT22;7953;54.302;10.128;2022-12-29T03:39:21;9.30;99.90
15707;DHT22;7953;54.302;10.128;2022-12-29T03:41:50;9.40;99.90
15707;DHT22;7953;54.302;10.128;2022-12-29T03:44:21;9.40;99.90
15707;DHT22;7953;54.302;10.128;2022-12-29T03:46:48;9.40;99.90
15707;DHT22;7953;54.302;10.128;2022-12-29T03:49:15;9.50;99.90
15707;DHT22;7953;54.302;10.128;2022-12-29T03:51:43;9.50;99.90
15707;DHT22;7953;54.302;10.128;2022-12-29T03:54:10;9.50;99.90
15707;DHT22;7953;54.302;10.128;2022-12-29T03:56:37;9.50;99.90
15707;DHT22;7953;54.302;10.128;2022-12-29T03:59:03;9.50;99.90
15707;DHT22;7953;54.302;10.128;2022-12-29T04:01:30;9.50;99.90
15707;DHT22;7953;54.302;10.128;2022-12-29T04:03:57;9.50;99.90
15707;DHT22;7953;54.302;10.128;2022-12-29T04:06:24;9.50;99.90
15707;DHT22;7953;54.302;10.128;2022-12-29T04:08:52;9.60;99.90
15707;DHT22;7953;54.302;10.128;2022-12-29T04:11:19;9.60;99.90
15707;DHT22;7953;54.302;10.128;2022-12-29T04:13:46;9.60;99.90
15707;DHT22;7953;54.302;10.128;2022-12-29T04:16:13;9.60;99.90
15707;DHT22;7953;54.302;10.128;2022-12-29T04:18:40;9.60;99.90
15707;DHT22;7953;54.302;10.128;2022-12-29T04:21:07;9.60;99.90
15707;DHT22;7953;54.302;10.128;2022-12-29T04:23:35;9.60;99.90
15707;DHT22;7953;54.302;10.128;2022-12-29T04:26:05;9.60;99.90
15707;DHT22;7953;54.302;10.128;2022-12-29T04:28:33;9.60;99.90
15707;DHT22;7953;54.302;10.128;2022-12-29T04:31:00;9.60;99.90
15707;DHT22;7953;54.302;10.128;2022-12-29T04:33:27;9.60;99.90
15707;DHT22;7953;54.302;10.128;2022-12-29T04:35:54;9.70;99.90
15707;DHT22;7953;54.302;10.128;2022-12-29T04:38:21;9.60;99.90
15707;DHT22;7953;54.302;10.128;2022-12-29T04:40:49;9.70;99.90
15707;DHT22;7953;54.302;10.128;2022-12-29T04:43:17;9.70;99.90
15707;DHT22;7953;54.302;10.128;2022-12-29T04:45:45;9.60;99.90
15707;DHT22;7953;54.302;10.128;2022-12-29T04:48:13;9.60;99.90
15707;DHT22;7953;54.302;10.128;2022-12-29T04:50:40;9.60;99.90
15707;DHT22;7953;54.302;10.128;2022-12-29T04:53:07;9.70;99.90
15707;DHT22;7953;54.302;10.128;2022-12-29T04:55:34;9.70;99.90
15707;DHT22;7953;54.302;10.128;2022-12-29T04:58:01;9.70;99.90
15707;DHT22;7953;54.302;10.128;2022-12-29T05:00:29;9.80;99.90
15707;DHT22;7953;54.302;10.128;2022-12-29T05:02:56;9.80;99.90
15707;DHT22;7953;54.302;10.128;2022-12-29T05:05:23;9.80;99.90
15707;DHT22;7953;54.302;10.128;2022-12-29T05:07:50;9.80;99.90
15707;DHT22;7953;54.302;10.128;2022-12-29T05:10:17;9.80;99.90
15707;DHT22;7953;54.302;10.128;2022-12-29T05:12:44;9.90;99.90
15707;DHT22;7953;54.302;10.128;2022-12-29T05:15:11;9.90;99.90
15707;DHT22;7953;54.302;10.128;2022-12-29T05:17:39;9.90;99.90
15707;DHT22;7953;54.302;10.128;2022-12-29T05:20:07;9.90;99.90
15707;DHT22;7953;54.302;10.128;2022-12-29T05:22:34;9.90;99.90
15707;DHT22;7953;54.302;10.128;2022-12-29T05:25:01;10.00;99.90
15707;DHT22;7953;54.302;10.128;2022-12-29T05:27:28;10.00;99.90
15707;DHT22;7953;54.302;10.128;2022-12-29T05:29:55;10.00;99.90
15707;DHT22;7953;54.302;10.128;2022-12-29T05:32:22;9.90;99.90
15707;DHT22;7953;54.302;10.128;2022-12-29T05:34:50;9.90;99.90
15707;DHT22;7953;54.302;10.128;2022-12-29T05:37:17;9.90;99.90
15707;DHT22;7953;54.302;10.128;2022-12-29T05:39:44;9.90;99.90
15707;DHT22;7953;54.302;10.128;2022-12-29T05:42:11;9.80;99.90
15707;DHT22;7953;54.302;10.128;2022-12-29T05:44:37;9.80;99.90
15707;DHT22;7953;54.302;10.128;2022-12-29T05:47:04;9.80;99.90
15707;DHT22;7953;54.302;10.128;2022-12-29T05:49:31;9.80;99.90
15707;DHT22;7953;54.302;10.128;2022-12-29T05:51:59;9.80;99.90
15707;DHT22;7953;54.302;10.128;2022-12-29T05:54:26;9.80;99.90
15707;DHT22;7953;54.302;10.128;2022-12-29T05:56:54;9.80;99.90
15707;DHT22;7953;54.302;10.128;2022-12-29T05:59:20;9.80;99.90
15707;DHT22;7953;54.302;10.128;2022-12-29T06:01:47;9.80;99.90
15707;DHT22;7953;54.302;10.128;2022-12-29T06:04:14;9.80;99.90
15707;DHT22;7953;54.302;10.128;2022-12-29T06:06:42;9.80;99.90
15707;DHT22;7953;54.302;10.128;2022-12-29T06:09:11;9.80;99.90
15707;DHT22;7953;54.302;10.128;2022-12-29T06:11:38;9.80;99.90
15707;DHT22;7953;54.302;10.128;2022-12-29T06:14:04;9.90;99.90
15707;DHT22;7953;54.302;10.128;2022-12-29T06:16:31;9.90;99.90
15707;DHT22;7953;54.302;10.128;2022-12-29T06:18:58;9.90;99.90
15707;DHT22;7953;54.302;10.128;2022-12-29T06:21:25;9.80;99.90
15707;DHT22;7953;54.302;10.128;2022-12-29T06:23:52;9.80;99.90
15707;DHT22;7953;54.302;10.128;2022-12-29T06:26:20;9.90;99.90
15707;DHT22;7953;54.302;10.128;2022-12-29T06:28:47;9.90;99.90
15707;DHT22;7953;54.302;10.128;2022-12-29T06:31:14;9.80;99.90
15707;DHT22;7953;54.302;10.128;2022-12-29T06:33:41;9.80;99.90
15707;DHT22;7953;54.302;10.128;2022-12-29T06:36:07;9.80;99.90
15707;DHT22;7953;54.302;10.128;2022-12-29T06:38:34;9.90;99.90
15707;DHT22;7953;54.302;10.128;2022-12-29T06:41:01;9.90;99.90
15707;DHT22;7953;54.302;10.128;2022-12-29T06:43:30;9.90;99.90
15707;DHT22;7953;54.302;10.128;2022-12-29T06:45:58;9.80;99.90
15707;DHT22;7953;54.302;10.128;2022-12-29T06:48:25;9.90;99.90
15707;DHT22;7953;54.302;10.128;2022-12-29T06:50:51;9.90;99.90
15707;DHT22;7953;54.302;10.128;2022-12-29T06:53:18;9.90;99.90
15707;DHT22;7953;54.302;10.128;2022-12-29T06:55:45;9.90;99.90
15707;DHT22;7953;54.302;10.128;2022-12-29T06:58:12;9.90;99.90
15707;DHT22;7953;54.302;10.128;2022-12-29T07:00:40;9.90;99.90
15707;DHT22;7953;54.302;10.128;2022-12-29T07:03:07;9.90;99.90
15707;DHT22;7953;54.302;10.128;2022-12-29T07:05:34;9.90;99.90
15707;DHT22;7953;54.302;10.128;2022-12-29T07:08:01;9.90;99.90
15707;DHT22;7953;54.302;10.128;2022-12-29T07:10:28;9.90;99.90
15707;DHT22;7953;54.302;10.128;2022-12-29T07:12:55;10.00;99.90
15707;DHT22;7953;54.302;10.128;2022-12-29T07:15:21;10.00;99.90
15707;DHT22;7953;54.302;10.128;2022-12-29T07:17:50;10.00;99.90
15707;DHT22;7953;54.302;10.128;2022-12-29T07:20:17;10.00;99.90
15707;DHT22;7953;54.302;10.128;2022-12-29T07:22:44;10.00;99.90
15707;DHT22;7953;54.302;10.128;2022-12-29T07:25:12;10.00;99.90
15707;DHT22;7953;54.302;10.128;2022-12-29T07:27:39;10.00;99.90
15707;DHT22;7953;54.302;10.128;2022-12-29T07:30:07;10.00;99.90
15707;DHT22;7953;54.302;10.128;2022-12-29T07:32:34;10.10;99.90
15707;DHT22;7953;54.302;10.128;2022-12-29T07:35:03;10.10;99.90
15707;DHT22;7953;54.302;10.128;2022-12-29T07:37:30;10.00;99.90
15707;DHT22;7953;54.302;10.128;2022-12-29T07:39:57;10.00;99.90
15707;DHT22;7953;54.302;10.128;2022-12-29T07:42:24;10.00;99.90
15707;DHT22;7953;54.302;10.128;2022-12-29T07:44:50;10.00;99.90
15707;DHT22;7953;54.302;10.128;2022-12-29T07:47:17;10.00;99.90
15707;DHT22;7953;54.302;10.128;2022-12-29T07:49:44;10.00;99.90
15707;DHT22;7953;54.302;10.128;2022-12-29T07:52:13;10.10;99.90
15707;DHT22;7953;54.302;10.128;2022-12-29T07:54:40;10.10;99.90
15707;DHT22;7953;54.302;10.128;2022-12-29T07:57:07;10.10;99.90
15707;DHT22;7953;54.302;10.128;2022-12-29T07:59:34;10.10;99.90
15707;DHT22;7953;54.302;10.128;2022-12-29T08:02:01;10.10;99.90
15707;DHT22;7953;54.302;10.128;2022-12-29T08:04:28;10.10;99.90
15707;DHT22;7953;54.302;10.128;2022-12-29T08:06:55;10.00;99.90
15707;DHT22;7953;54.302;10.128;2022-12-29T08:09:23;10.10;99.90
15707;DHT22;7953;54.302;10.128;2022-12-29T08:11:50;10.10;99.90
15707;DHT22;7953;54.302;10.128;2022-12-29T08:14:17;10.10;99.90
15707;DHT22;7953;54.302;10.128;2022-12-29T08:16:44;10.10;99.90
15707;DHT22;7953;54.302;10.128;2022-12-29T08:19:11;10.00;99.90
15707;DHT22;7953;54.302;10.128;2022-12-29T08:21:38;10.00;99.90
15707;DHT22;7953;54.302;10.128;2022-12-29T08:24:05;10.00;99.90
15707;DHT22;7953;54.302;10.128;2022-12-29T08:26:33;10.00;99.90
15707;DHT22;7953;54.302;10.128;2022-12-29T08:29:00;10.00;99.90
15707;DHT22;7953;54.302;10.128;2022-12-29T08:31:27;10.00;99.90
15707;DHT22;7953;54.302;10.128;2022-12-29T08:33:54;10.00;99.90
15707;DHT22;7953;54.302;10.128;2022-12-29T08:36:21;9.90;99.90
15707;DHT22;7953;54.302;10.128;2022-12-29T08:38:48;10.00;99.90
15707;DHT22;7953;54.302;10.128;2022-12-29T08:41:15;10.00;99.90
15707;DHT22;7953;54.302;10.128;2022-12-29T08:43:45;10.10;99.90
15707;DHT22;7953;54.302;10.128;2022-12-29T08:46:12;10.10;99.90
15707;DHT22;7953;54.302;10.128;2022-12-29T08:48:39;10.10;99.90
15707;DHT22;7953;54.302;10.128;2022-12-29T08:51:06;10.10;99.90
15707;DHT22;7953;54.302;10.128;2022-12-29T08:53:33;10.10;99.90
15707;DHT22;7953;54.302;10.128;2022-12-29T08:56:01;10.10;99.90
15707;DHT22;7953;54.302;10.128;2022-12-29T08:58:28;10.10;99.90
15707;DHT22;7953;54.302;10.128;2022-12-29T09:00:57;10.10;99.90
15707;DHT22;7953;54.302;10.128;2022-12-29T09:03:24;10.10;99.90
15707;DHT22;7953;54.302;10.128;2022-12-29T09:05:52;10.10;99.90
15707;DHT22;7953;54.302;10.128;2022-12-29T09:08:20;10.10;99.90
15707;DHT22;7953;54.302;10.128;2022-12-29T09:10:47;10.10;99.90
15707;DHT22;7953;54.302;10.128;2022-12-29T09:13:15;10.20;99.90
15707;DHT22;7953;54.302;10.128;2022-12-29T09:15:42;10.10;99.90
15707;DHT22;7953;54.302;10.128;2022-12-29T09:18:11;10.30;99.90
15707;DHT22;7953;54.302;10.128;2022-12-29T09:20:38;10.50;99.90
15707;DHT22;7953;54.302;10.128;2022-12-29T09:23:05;10.40;99.90
15707;DHT22;7953;54.302;10.128;2022-12-29T09:25:33;10.30;99.90
15707;DHT22;7953;54.302;10.128;2022-12-29T09:28:00;10.20;99.90
15707;DHT22;7953;54.302;10.128;2022-12-29T09:30:30;10.10;99.90
15707;DHT22;7953;54.302;10.128;2022-12-29T09:32:56;10.00;99.90
15707;DHT22;7953;54.302;10.128;2022-12-29T09:35:25;10.00;99.90
15707;DHT22;7953;54.302;10.128;2022-12-29T09:37:51;10.00;99.90
15707;DHT22;7953;54.302;10.128;2022-12-29T09:40:25;10.00;99.90
15707;DHT22;7953;54.302;10.128;2022-12-29T09:43:10;10.10;99.90
15707;DHT22;7953;54.302;10.128;2022-12-29T09:45:42;10.10;99.90
15707;DHT22;7953;54.302;10.128;2022-12-29T09:48:14;10.10;99.90
15707;DHT22;7953;54.302;10.128;2022-12-29T09:50:45;10.10;99.90
15707;DHT22;7953;54.302;10.128;2022-12-29T09:53:17;10.20;99.90
15707;DHT22;7953;54.302;10.128;2022-12-29T09:55:48;10.20;99.90
15707;DHT22;7953;54.302;10.128;2022-12-29T09:58:19;10.20;99.90
15707;DHT22;7953;54.302;10.128;2022-12-29T10:00:50;10.30;99.90
15707;DHT22;7953;54.302;10.128;2022-12-29T10:03:20;10.40;99.90
15707;DHT22;7953;54.302;10.128;2022-12-29T10:05:55;10.40;99.90
15707;DHT22;7953;54.302;10.128;2022-12-29T10:08:33;10.40;99.90
15707;DHT22;7953;54.302;10.128;2022-12-29T10:11:09;10.40;99.90
15707;DHT22;7953;54.302;10.128;2022-12-29T10:13:46;10.30;99.90
15707;DHT22;7953;54.302;10.128;2022-12-29T10:16:20;10.30;99.90
15707;DHT22;7953;54.302;10.128;2022-12-29T10:19:02;10.30;99.90
15707;DHT22;7953;54.302;10.128;2022-12-29T10:21:41;10.40;99.90
15707;DHT22;7953;54.302;10.128;2022-12-29T10:24:12;10.40;99.90
15707;DHT22;7953;54.302;10.128;2022-12-29T10:26:40;10.40;99.90
15707;DHT22;7953;54.302;10.128;2022-12-29T10:29:14;10.40;99.90
15707;DHT22;7953;54.302;10.128;2022-12-29T10:31:44;10.40;99.90
15707;DHT22;7953;54.302;10.128;2022-12-29T10:34:18;10.40;99.90
15707;DHT22;7953;54.302;10.128;2022-12-29T10:36:49;10.40;99.90
15707;DHT22;7953;54.302;10.128;2022-12-29T10:39:21;10.40;99.90
15707;DHT22;7953;54.302;10.128;2022-12-29T10:41:53;10.40;99.90
15707;DHT22;7953;54.302;10.128;2022-12-29T10:44:22;10.40;99.90
15707;DHT22;7953;54.302;10.128;2022-12-29T10:46:55;10.40;99.90
15707;DHT22;7953;54.302;10.128;2022-12-29T10:49:25;10.50;99.90
15707;DHT22;7953;54.302;10.128;2022-12-29T10:51:57;10.50;99.90
15707;DHT22;7953;54.302;10.128;2022-12-29T10:54:27;10.50;99.90
15707;DHT22;7953;54.302;10.128;2022-12-29T10:57:00;10.50;99.90
15707;DHT22;7953;54.302;10.128;2022-12-29T10:59:30;10.50;99.90
15707;DHT22;7953;54.302;10.128;2022-12-29T11:02:01;10.50;99.90
15707;DHT22;7953;54.302;10.128;2022-12-29T11:04:40;10.50;99.90
15707;DHT22;7953;54.302;10.128;2022-12-29T11:07:11;10.40;99.90
15707;DHT22;7953;54.302;10.128;2022-12-29T11:09:39;10.40;99.90
15707;DHT22;7953;54.302;10.128;2022-12-29T11:12:21;10.50;99.90
15707;DHT22;7953;54.302;10.128;2022-12-29T11:15:01;10.50;99.90
15707;DHT22;7953;54.302;10.128;2022-12-29T11:17:28;10.50;99.90
15707;DHT22;7953;54.302;10.128;2022-12-29T11:19:55;10.50;99.90
15707;DHT22;7953;54.302;10.128;2022-12-29T11:22:26;10.50;99.90
15707;DHT22;7953;54.302;10.128;2022-12-29T11:24:54;10.40;99.90
15707;DHT22;7953;54.302;10.128;2022-12-29T11:27:31;10.40;99.90
15707;DHT22;7953;54.302;10.128;2022-12-29T11:29:58;10.30;99.90
15707;DHT22;7953;54.302;10.128;2022-12-29T11:32:27;10.20;99.90
15707;DHT22;7953;54.302;10.128;2022-12-29T11:34:55;10.20;99.90
15707;DHT22;7953;54.302;10.128;2022-12-29T11:37:28;10.10;99.90
15707;DHT22;7953;54.302;10.128;2022-12-29T11:39:57;10.10;99.90
15707;DHT22;7953;54.302;10.128;2022-12-29T11:42:32;10.10;99.90
15707;DHT22;7953;54.302;10.128;2022-12-29T11:45:04;10.00;99.90
15707;DHT22;7953;54.302;10.128;2022-12-29T11:47:32;9.90;99.90
15707;DHT22;7953;54.302;10.128;2022-12-29T11:50:02;9.90;99.90
15707;DHT22;7953;54.302;10.128;2022-12-29T11:52:33;9.90;99.90
15707;DHT22;7953;54.302;10.128;2022-12-29T11:55:03;9.90;99.90
15707;DHT22;7953;54.302;10.128;2022-12-29T11:57:33;9.90;99.90
15707;DHT22;7953;54.302;10.128;2022-12-29T12:00:03;9.90;99.90
15707;DHT22;7953;54.302;10.128;2022-12-29T12:02:40;10.00;99.90
15707;DHT22;7953;54.302;10.128;2022-12-29T12:05:21;10.00;99.90
15707;DHT22;7953;54.302;10.128;2022-12-29T12:07:55;10.00;99.90
15707;DHT22;7953;54.302;10.128;2022-12-29T12:10:27;10.00;99.90
15707;DHT22;7953;54.302;10.128;2022-12-29T12:13:03;10.00;99.90
15707;DHT22;7953;54.302;10.128;2022-12-29T12:15:36;10.10;99.90
15707;DHT22;7953;54.302;10.128;2022-12-29T12:18:09;10.10;99.90
15707;DHT22;7953;54.302;10.128;2022-12-29T12:20:45;10.00;99.90
15707;DHT22;7953;54.302;10.128;2022-12-29T12:23:20;10.00;99.90
15707;DHT22;7953;54.302;10.128;2022-12-29T12:25:56;9.90;99.90
15707;DHT22;7953;54.302;10.128;2022-12-29T12:28:28;9.90;99.90
15707;DHT22;7953;54.302;10.128;2022-12-29T12:30:59;9.90;99.90
15707;DHT22;7953;54.302;10.128;2022-12-29T12:33:29;9.90;99.90
15707;DHT22;7953;54.302;10.128;2022-12-29T12:36:20;9.90;99.90
15707;DHT22;7953;54.302;10.128;2022-12-29T12:38:54;9.90;99.90
15707;DHT22;7953;54.302;10.128;2022-12-29T12:41:29;9.90;99.90
15707;DHT22;7953;54.302;10.128;2022-12-29T12:44:01;9.80;99.90
15707;DHT22;7953;54.302;10.128;2022-12-29T12:46:52;9.80;99.90
15707;DHT22;7953;54.302;10.128;2022-12-29T12:49:46;9.70;99.90
15707;DHT22;7953;54.302;10.128;2022-12-29T12:52:24;9.70;99.90
15707;DHT22;7953;54.302;10.128;2022-12-29T12:55:06;9.60;99.90
15707;DHT22;7953;54.302;10.128;2022-12-29T12:57:49;9.50;99.90
15707;DHT22;7953;54.302;10.128;2022-12-29T13:00:19;9.40;99.90
15707;DHT22;7953;54.302;10.128;2022-12-29T13:03:00;9.40;99.90
15707;DHT22;7953;54.302;10.128;2022-12-29T13:05:41;9.40;99.90
15707;DHT22;7953;54.302;10.128;2022-12-29T13:08:37;9.30;99.90
15707;DHT22;7953;54.302;10.128;2022-12-29T13:11:14;9.30;99.90
15707;DHT22;7953;54.302;10.128;2022-12-29T13:16:48;9.20;99.90
15707;DHT22;7953;54.302;10.128;2022-12-29T13:19:22;9.20;99.90
15707;DHT22;7953;54.302;10.128;2022-12-29T13:21:58;9.20;99.90
15707;DHT22;7953;54.302;10.128;2022-12-29T13:24:32;9.10;99.90
15707;DHT22;7953;54.302;10.128;2022-12-29T13:27:08;9.10;99.90
15707;DHT22;7953;54.302;10.128;2022-12-29T13:29:42;9.00;99.90
15707;DHT22;7953;54.302;10.128;2022-12-29T13:32:20;9.00;99.90
15707;DHT22;7953;54.302;10.128;2022-12-29T13:34:56;9.00;99.90
15707;DHT22;7953;54.302;10.128;2022-12-29T13:37:30;9.00;99.90
15707;DHT22;7953;54.302;10.128;2022-12-29T13:40:01;8.90;99.90
15707;DHT22;7953;54.302;10.128;2022-12-29T13:42:31;8.90;99.90
15707;DHT22;7953;54.302;10.128;2022-12-29T13:45:01;8.90;99.90
15707;DHT22;7953;54.302;10.128;2022-12-29T13:47:33;8.90;99.90
15707;DHT22;7953;54.302;10.128;2022-12-29T13:50:03;8.80;99.90
15707;DHT22;7953;54.302;10.128;2022-12-29T13:52:36;8.90;99.90
15707;DHT22;7953;54.302;10.128;2022-12-29T13:55:20;8.90;99.90
15707;DHT22;7953;54.302;10.128;2022-12-29T13:57:53;8.90;99.90
15707;DHT22;7953;54.302;10.128;2022-12-29T14:00:23;8.90;99.90
15707;DHT22;7953;54.302;10.128;2022-12-29T14:03:12;8.90;99.90
15707;DHT22;7953;54.302;10.128;2022-12-29T14:05:45;8.90;99.90
15707;DHT22;7953;54.302;10.128;2022-12-29T14:08:34;8.90;99.90
15707;DHT22;7953;54.302;10.128;2022-12-29T14:11:07;8.90;99.90
15707;DHT22;7953;54.302;10.128;2022-12-29T14:13:38;8.90;99.90
15707;DHT22;7953;54.302;10.128;2022-12-29T14:16:08;9.00;99.90
15707;DHT22;7953;54.302;10.128;2022-12-29T14:18:42;8.90;99.90
15707;DHT22;7953;54.302;10.128;2022-12-29T14:21:18;9.00;99.90
15707;DHT22;7953;54.302;10.128;2022-12-29T14:23:49;8.90;99.90
15707;DHT22;7953;54.302;10.128;2022-12-29T14:26:18;8.90;99.90
15707;DHT22;7953;54.302;10.128;2022-12-29T14:29:22;8.90;99.90
15707;DHT22;7953;54.302;10.128;2022-12-29T14:32:36;8.90;99.90
15707;DHT22;7953;54.302;10.128;2022-12-29T14:35:37;9.00;99.90
15707;DHT22;7953;54.302;10.128;2022-12-29T14:38:15;8.90;99.90
15707;DHT22;7953;54.302;10.128;2022-12-29T14:40:43;8.90;99.90
15707;DHT22;7953;54.302;10.128;2022-12-29T14:43:18;8.90;99.90
15707;DHT22;7953;54.302;10.128;2022-12-29T14:45:56;8.90;99.90
15707;DHT22;7953;54.302;10.128;2022-12-29T14:48:34;8.90;99.90
15707;DHT22;7953;54.302;10.128;2022-12-29T14:51:17;8.90;99.90
15707;DHT22;7953;54.302;10.128;2022-12-29T14:53:46;8.90;99.90
15707;DHT22;7953;54.302;10.128;2022-12-29T14:56:15;9.00;99.90
15707;DHT22;7953;54.302;10.128;2022-12-29T14:58:51;9.00;99.90
15707;DHT22;7953;54.302;10.128;2022-12-29T15:01:34;8.90;99.90
15707;DHT22;7953;54.302;10.128;2022-12-29T15:04:06;9.00;99.90
15707;DHT22;7953;54.302;10.128;2022-12-29T15:06:40;9.00;99.90
15707;DHT22;7953;54.302;10.128;2022-12-29T15:09:12;9.00;99.90
15707;DHT22;7953;54.302;10.128;2022-12-29T15:11:49;9.00;99.90
15707;DHT22;7953;54.302;10.128;2022-12-29T15:14:35;9.10;99.90
15707;DHT22;7953;54.302;10.128;2022-12-29T15:17:21;9.00;99.90
15707;DHT22;7953;54.302;10.128;2022-12-29T15:19:49;9.00;99.90
15707;DHT22;7953;54.302;10.128;2022-12-29T15:22:16;8.90;99.90
15707;DHT22;7953;54.302;10.128;2022-12-29T15:24:44;9.00;99.90
15707;DHT22;7953;54.302;10.128;2022-12-29T15:27:14;8.90;99.90
15707;DHT22;7953;54.302;10.128;2022-12-29T15:29:44;8.90;99.90
15707;DHT22;7953;54.302;10.128;2022-12-29T15:32:23;8.90;99.90
15707;DHT22;7953;54.302;10.128;2022-12-29T15:34:52;8.90;99.90
15707;DHT22;7953;54.302;10.128;2022-12-29T15:37:21;8.90;99.90
15707;DHT22;7953;54.302;10.128;2022-12-29T15:39:49;8.90;99.90
15707;DHT22;7953;54.302;10.128;2022-12-29T15:42:33;8.90;99.90
15707;DHT22;7953;54.302;10.128;2022-12-29T15:45:04;8.80;99.90
15707;DHT22;7953;54.302;10.128;2022-12-29T15:47:34;8.80;99.90
15707;DHT22;7953;54.302;10.128;2022-12-29T15:50:03;8.80;99.90
15707;DHT22;7953;54.302;10.128;2022-12-29T15:52:32;8.80;99.90
15707;DHT22;7953;54.302;10.128;2022-12-29T15:55:00;8.80;99.90
15707;DHT22;7953;54.302;10.128;2022-12-29T15:57:30;8.80;99.90
15707;DHT22;7953;54.302;10.128;2022-12-29T15:59:58;8.80;99.90
15707;DHT22;7953;54.302;10.128;2022-12-29T16:02:26;8.80;99.90
15707;DHT22;7953;54.302;10.128;2022-12-29T16:04:54;8.70;99.90
15707;DHT22;7953;54.302;10.128;2022-12-29T16:07:27;8.70;99.90
15707;DHT22;7953;54.302;10.128;2022-12-29T16:09:56;8.70;99.90
15707;DHT22;7953;54.302;10.128;2022-12-29T16:12:26;8.60;99.90
15707;DHT22;7953;54.302;10.128;2022-12-29T16:14:57;8.60;99.90